Time;durP1;ratioP1;P1;durP2;ratioP2;P2;SDS_P1;SDS_P2;PMS_P1;PMS_P2;Temp;Humidity;BMP_temperature;BMP_pressure;BME280_temperature;BME280_humidity;BME280_pressure;Samples;Min_cycle;Max_cycle;Signal;HPM_P1;HPM_P2
2020/12/15 00:01:08;;;;;;;2.08;1.11;;;;;;;6.79;86.33;98806.03;2017625;80;20339;-74
2020/12/15 00:04:09;;;;;;;1.70;0.90;;;;;;;6.78;86.20;98804.31;2016784;80;20452;-74
2020/12/15 00:07:11;;;;;;;2.46;1.02;;;;;;;6.77;86.48;98799.16;2017735;80;20797;-74
2020/12/15 00:10:13;;;;;;;3.09;1.00;;;;;;;6.74;86.44;98806.91;2016497;80;20337;-74
2020/12/15 00:13:14;;;;;;;2.28;1.31;;;;;;;6.72;86.63;98803.47;2017603;80;20380;-74
2020/12/15 00:16:17;;;;;;;0.99;0.84;;;;;;;6.70;86.72;98803.47;2017717;80;20725;-74
2020/12/15 00:19:19;;;;;;;1.17;0.96;;;;;;;6.68;86.99;98804.31;2016830;80;20329;-74
2020/12/15 00:22:21;;;;;;;1.33;1.04;;;;;;;6.66;87.15;98804.31;2018126;80;20332;-75
2020/12/15 00:25:22;;;;;;;2.78;1.10;;;;;;;6.64;87.27;98808.59;2017580;80;20343;-75
2020/12/15 00:28:24;;;;;;;2.76;1.15;;;;;;;6.63;87.40;98801.72;2017869;80;20761;-75
2020/12/15 00:31:33;;;;;;;2.65;1.40;;;;;;;6.62;87.67;98793.13;2018403;80;21526;-75
2020/12/15 00:34:35;;;;;;;3.46;1.36;;;;;;;6.63;87.79;98792.25;2067178;69;21010;-74
2020/12/15 00:37:40;;;;;;;2.22;1.34;;;;;;;6.63;87.98;98797.41;2018147;80;20372;-75
2020/12/15 00:40:42;;;;;;;2.65;1.35;;;;;;;6.64;88.05;98788.84;2018280;80;20325;-75
2020/12/15 00:43:44;;;;;;;1.84;1.41;;;;;;;6.66;87.88;98783.69;2017499;80;20451;-74
2020/12/15 00:46:50;;;;;;;2.84;1.64;;;;;;;6.62;87.92;98777.63;2018229;80;20365;-75
2020/12/15 00:49:52;;;;;;;2.65;1.52;;;;;;;6.62;88.35;98777.63;2017516;80;20372;-74
2020/12/15 00:52:55;;;;;;;2.66;1.67;;;;;;;6.63;88.28;98770.75;2017643;80;20949;-74
2020/12/15 00:55:56;;;;;;;3.72;1.34;;;;;;;6.66;88.18;98765.63;2018535;80;20332;-75
2020/12/15 00:58:58;;;;;;;3.11;1.29;;;;;;;6.66;87.96;98763.06;2017296;80;20347;-75
2020/12/15 01:02:01;;;;;;;2.58;1.38;;;;;;;6.69;88.02;98767.34;2018575;80;20354;-75
2020/12/15 01:05:03;;;;;;;1.45;1.00;;;;;;;6.73;88.08;98757.03;2018647;80;20333;-75
2020/12/15 01:08:05;;;;;;;2.35;1.25;;;;;;;6.77;88.41;98761.31;2017296;80;20880;-77
2020/12/15 01:11:06;;;;;;;2.20;1.08;;;;;;;6.79;88.45;98764.75;2018079;80;20346;-76
2020/12/15 01:14:08;;;;;;;3.00;1.10;;;;;;;6.80;88.40;98766.47;2018282;80;20780;-75
2020/12/15 01:17:10;;;;;;;1.80;1.10;;;;;;;6.82;88.52;98777.69;2017605;80;20821;-75
2020/12/15 01:20:12;;;;;;;2.21;0.93;;;;;;;6.82;88.58;98774.22;2017508;80;20876;-75
2020/12/15 01:23:14;;;;;;;1.65;1.00;;;;;;;6.83;88.36;98770.81;2017413;80;20328;-75
2020/12/15 01:26:16;;;;;;;3.11;1.19;;;;;;;6.83;88.55;98775.97;2017299;80;20336;-75
2020/12/15 01:29:17;;;;;;;3.13;1.31;;;;;;;6.80;88.56;98779.38;2017373;80;20359;-75
2020/12/15 01:32:19;;;;;;;3.29;1.11;;;;;;;6.82;88.82;98767.38;2017535;80;20346;-75
2020/12/15 01:35:21;;;;;;;1.06;0.98;;;;;;;6.84;88.83;98767.38;2016995;80;20901;-75
2020/12/15 01:38:23;;;;;;;2.53;1.17;;;;;;;6.82;88.73;98767.38;2017429;80;20340;-74
2020/12/15 01:41:25;;;;;;;2.71;1.00;;;;;;;6.82;88.76;98777.69;2017920;80;20331;-75
2020/12/15 01:44:26;;;;;;;2.61;1.11;;;;;;;6.84;88.91;98775.09;2017216;80;20338;-75
2020/12/15 01:47:29;;;;;;;1.41;1.05;;;;;;;6.83;88.85;98781.13;2016483;80;20537;-74
2020/12/15 01:50:31;;;;;;;0.86;0.81;;;;;;;6.81;88.99;98783.69;2016517;80;20333;-76
2020/12/15 01:53:32;;;;;;;2.30;1.04;;;;;;;6.82;88.96;98782.84;2016888;80;20364;-75
2020/12/15 01:56:34;;;;;;;1.42;0.93;;;;;;;6.81;89.00;98778.53;2019793;80;20781;-75
2020/12/15 01:59:35;;;;;;;1.69;1.23;;;;;;;6.82;89.17;98769.94;2020610;80;20317;-75
2020/12/15 02:02:40;;;;;;;2.11;1.14;;;;;;;6.86;89.26;98773.38;2017360;80;20313;-75
2020/12/15 02:05:45;;;;;;;3.00;1.24;;;;;;;6.86;89.20;98771.66;2017408;80;20377;-74
2020/12/15 02:08:48;;;;;;;1.71;1.05;;;;;;;6.85;89.12;98764.78;2017561;80;20347;-75
2020/12/15 02:11:49;;;;;;;1.98;1.20;;;;;;;6.86;89.06;98763.06;2017237;80;20309;-75
2020/12/15 02:14:51;;;;;;;3.20;1.20;;;;;;;6.84;88.94;98752.75;2017623;80;21354;-75
2020/12/15 02:17:53;;;;;;;1.58;1.20;;;;;;;6.85;88.93;98759.63;2016864;80;20344;-74
2020/12/15 02:20:54;;;;;;;1.50;1.17;;;;;;;6.86;88.96;98747.56;2017140;80;20329;-74
2020/12/15 02:23:56;;;;;;;2.19;1.30;;;;;;;6.86;89.15;98752.75;2017153;80;20321;-75
2020/12/15 02:26:57;;;;;;;2.99;1.17;;;;;;;6.87;89.26;98759.63;2017450;80;20317;-75
2020/12/15 02:29:59;;;;;;;3.17;1.48;;;;;;;6.84;89.29;98757.03;2017530;80;20333;-75
2020/12/15 02:33:01;;;;;;;1.19;1.09;;;;;;;6.86;89.61;98750.16;2016611;80;20986;-76
2020/12/15 02:36:02;;;;;;;1.46;1.00;;;;;;;6.86;89.63;98755.31;2015935;80;20341;-75
2020/12/15 02:39:15;;;;;;;2.66;1.11;;;;;;;6.86;89.56;98734.69;2015242;80;20342;-75
2020/12/15 02:42:32;;;;;;;2.03;0.90;;;;;;;6.87;89.53;98744.13;2014901;80;20353;-75
2020/12/15 02:45:34;;;;;;;1.36;1.26;;;;;;;6.85;89.38;98751.03;2015691;80;20332;-75
2020/12/15 02:48:35;;;;;;;2.78;1.58;;;;;;;6.84;89.48;98750.16;2015162;80;20372;-75
2020/12/15 02:51:37;;;;;;;1.40;1.20;;;;;;;6.86;89.62;98745.00;2014952;80;21131;-75
2020/12/15 02:54:39;;;;;;;1.49;1.17;;;;;;;6.88;89.64;98749.28;2016155;80;20332;-75
2020/12/15 02:57:41;;;;;;;1.45;1.33;;;;;;;6.86;89.56;98734.69;2016431;80;21253;-75
2020/12/15 03:00:42;;;;;;;1.27;1.00;;;;;;;6.85;89.67;98732.97;2016406;80;20361;-75
2020/12/15 03:03:44;;;;;;;1.04;0.88;;;;;;;6.83;89.62;98729.53;2018648;80;21308;-76
2020/12/15 03:06:46;;;;;;;1.10;0.90;;;;;;;6.84;89.87;98732.09;2017932;80;20317;-75
2020/12/15 03:09:48;;;;;;;2.88;1.16;;;;;;;6.86;89.89;98734.69;2018461;80;21357;-75
2020/12/15 03:12:52;;;;;;;2.14;1.35;;;;;;;6.87;89.96;98731.22;2017306;80;20388;-75
2020/12/15 03:15:53;;;;;;;2.21;0.94;;;;;;;6.86;89.94;98725.22;2017656;80;20854;-75
2020/12/15 03:18:55;;;;;;;1.83;1.10;;;;;;;6.86;90.03;98735.53;2017564;80;20844;-74
2020/12/15 03:21:57;;;;;;;3.04;0.98;;;;;;;6.88;90.03;98735.53;2018093;80;20329;-75
2020/12/15 03:24:58;;;;;;;2.31;1.02;;;;;;;6.87;90.02;98729.50;2017544;80;20808;-75
2020/12/15 03:28:00;;;;;;;1.83;1.00;;;;;;;6.87;90.05;98724.34;2018144;80;20341;-75
2020/12/15 03:31:02;;;;;;;0.90;0.90;;;;;;;6.88;90.08;98723.50;2018009;80;20362;-74
2020/12/15 03:34:05;;;;;;;0.95;0.80;;;;;;;6.87;89.97;98718.34;2017114;80;20346;-75
2020/12/15 03:37:06;;;;;;;2.08;0.79;;;;;;;6.88;89.79;98718.31;2016257;80;20793;-74
2020/12/15 03:40:08;;;;;;;0.88;0.88;;;;;;;6.89;89.76;98716.59;2017186;80;20333;-75
2020/12/15 03:43:09;;;;;;;3.14;1.19;;;;;;;6.90;89.75;98713.16;2023454;80;20331;-75
2020/12/15 03:46:11;;;;;;;1.16;1.06;;;;;;;6.88;89.74;98708.00;2019011;80;20325;-75
2020/12/15 03:49:14;;;;;;;3.38;1.04;;;;;;;6.92;90.02;98701.97;2017816;80;20336;-75
2020/12/15 03:52:16;;;;;;;5.66;1.45;;;;;;;6.93;nan;98705.41;2016932;80;20316;-75
2020/12/15 03:55:24;;;;;;;3.80;1.19;;;;;;;6.92;90.11;98714.88;2021729;80;20605;-75
2020/12/15 03:58:25;;;;;;;1.16;0.99;;;;;;;6.94;90.19;98718.31;2019020;80;20321;-75
2020/12/15 04:01:27;;;;;;;1.29;0.90;;;;;;;6.92;90.15;98722.63;2018173;80;20457;-75
2020/12/15 04:04:29;;;;;;;1.41;0.96;;;;;;;6.91;90.11;98712.31;2016683;80;21133;-75
2020/12/15 04:07:31;;;;;;;4.56;1.10;;;;;;;6.93;90.37;98719.19;2016247;80;20328;-74
2020/12/15 04:10:32;;;;;;;3.21;1.02;;;;;;;6.95;90.42;98724.34;2017517;80;21062;-74
2020/12/15 04:13:34;;;;;;;0.99;0.89;;;;;;;6.95;90.37;98720.03;2019639;80;20954;-74
2020/12/15 04:16:36;;;;;;;1.25;0.98;;;;;;;6.96;90.29;98710.56;2018316;80;20342;-74
2020/12/15 04:19:38;;;;;;;1.58;0.86;;;;;;;6.95;90.24;98714.88;2017838;80;20343;-74
2020/12/15 04:22:40;;;;;;;1.75;0.99;;;;;;;6.95;90.19;98714.00;2018662;80;20317;-74
2020/12/15 04:25:54;;;;;;;1.09;0.89;;;;;;;6.94;90.23;98717.47;2021086;80;20309;-74
2020/12/15 04:28:55;;;;;;;3.00;1.31;;;;;;;6.95;90.17;98722.63;2018254;80;20950;-74
2020/12/15 04:31:57;;;;;;;4.06;1.36;;;;;;;6.95;90.26;98714.00;2018202;80;20325;-74
2020/12/15 04:34:59;;;;;;;3.67;1.45;;;;;;;6.97;90.34;98714.88;2017518;80;20337;-74
2020/12/15 04:38:00;;;;;;;3.15;1.64;;;;;;;7.01;90.52;98714.03;2017042;80;21008;-74
2020/12/15 04:41:02;;;;;;;4.90;1.55;;;;;;;7.02;90.55;98713.16;2018020;80;21157;-74
2020/12/15 04:44:04;;;;;;;2.20;1.69;;;;;;;7.04;90.57;98714.03;2017910;80;20417;-75
2020/12/15 04:47:18;;;;;;;2.45;1.50;;;;;;;7.06;90.61;98704.53;2018047;80;20341;-74
2020/12/15 04:50:23;;;;;;;2.06;1.26;;;;;;;7.05;90.55;98705.41;2017095;80;20322;-73
2020/12/15 04:53:27;;;;;;;2.29;1.99;;;;;;;7.00;90.41;98706.25;2016900;80;20363;-75
2020/12/15 04:56:31;;;;;;;1.45;1.26;;;;;;;6.97;90.44;98699.38;2017325;80;20893;-74
2020/12/15 04:59:37;;;;;;;1.60;1.45;;;;;;;6.96;90.50;98703.69;2017253;80;20366;-74
2020/12/15 05:02:41;;;;;;;1.58;1.48;;;;;;;6.93;90.32;98706.28;2017579;80;20767;-74
2020/12/15 05:05:45;;;;;;;1.46;1.36;;;;;;;6.91;90.37;98701.97;2018550;80;20808;-73
2020/12/15 05:08:47;;;;;;;1.56;1.46;;;;;;;6.85;90.22;98705.44;2017427;80;20343;-74
2020/12/15 05:11:49;;;;;;;2.04;1.80;;;;;;;6.85;90.22;98702.00;2017729;80;20313;-73
2020/12/15 05:14:51;;;;;;;2.67;1.86;;;;;;;6.81;90.16;98695.09;2018212;80;20316;-73
2020/12/15 05:18:00;;;;;;;3.26;1.80;;;;;;;6.80;90.16;98699.41;2017068;80;20367;-74
2020/12/15 05:21:13;;;;;;;2.26;2.00;;;;;;;6.77;90.14;98701.97;2017144;80;20475;-74
2020/12/15 05:24:15;;;;;;;1.80;1.59;;;;;;;6.77;90.30;98694.25;2017183;80;20377;-74
2020/12/15 05:27:18;;;;;;;2.25;1.52;;;;;;;6.76;90.34;98694.25;2017316;80;20351;-73
2020/12/15 05:30:20;;;;;;;2.51;1.74;;;;;;;6.76;90.49;98699.41;2016855;80;20794;-73
2020/12/15 05:33:22;;;;;;;1.61;1.51;;;;;;;6.78;90.55;98697.69;2018414;80;20895;-74
2020/12/15 05:36:23;;;;;;;3.26;1.94;;;;;;;6.80;90.69;98695.94;2017518;80;20309;-73
2020/12/15 05:39:26;;;;;;;3.89;2.15;;;;;;;6.82;90.79;98689.97;2017727;80;20426;-74
2020/12/15 05:42:31;;;;;;;2.08;1.76;;;;;;;6.83;90.65;98685.66;2017516;80;20785;-74
2020/12/15 05:45:34;;;;;;;1.74;1.45;;;;;;;6.84;90.72;98690.81;2017150;80;20855;-74
2020/12/15 05:48:36;;;;;;;2.04;1.75;;;;;;;6.84;90.72;98692.53;2017830;80;21126;-73
2020/12/15 05:51:42;;;;;;;2.19;1.35;;;;;;;6.84;90.61;98693.41;2017411;80;20346;-74
2020/12/15 05:54:44;;;;;;;1.91;1.73;;;;;;;6.85;90.56;98692.53;2017486;80;20375;-73
2020/12/15 05:57:45;;;;;;;1.69;1.40;;;;;;;6.87;90.59;98682.22;2016914;80;20317;-73
2020/12/15 06:00:47;;;;;;;3.29;1.44;;;;;;;6.90;90.47;98685.63;2017493;80;20927;-74
2020/12/15 06:03:58;;;;;;;2.19;1.90;;;;;;;6.93;90.45;98688.22;2018063;80;20852;-73
2020/12/15 06:07:04;;;;;;;2.29;1.89;;;;;;;6.95;90.44;98695.94;2018037;80;20329;-73
2020/12/15 06:10:06;;;;;;;5.81;2.54;;;;;;;7.00;90.58;98693.34;2017216;80;20305;-73
2020/12/15 06:13:07;;;;;;;2.08;1.80;;;;;;;7.02;90.55;98691.66;2017133;80;20328;-75
2020/12/15 06:16:09;;;;;;;2.61;1.67;;;;;;;7.05;90.63;98691.66;2016804;80;21158;-73
2020/12/15 06:19:12;;;;;;;1.84;1.52;;;;;;;7.03;90.44;98691.66;2018171;80;20382;-73
2020/12/15 06:22:14;;;;;;;2.04;1.60;;;;;;;7.04;90.41;98695.09;2017787;80;20752;-74
2020/12/15 06:25:28;;;;;;;2.04;1.91;;;;;;;7.05;90.55;98692.50;2016770;80;20329;-73
2020/12/15 06:28:33;;;;;;;2.65;1.90;;;;;;;7.06;90.40;98686.47;2015963;80;20942;-73
2020/12/15 06:31:35;;;;;;;3.58;2.26;;;;;;;7.06;90.45;98689.06;2016436;80;20318;-73
2020/12/15 06:34:39;;;;;;;2.56;2.09;;;;;;;7.11;90.62;98694.19;2014889;80;20419;-74
2020/12/15 06:37:42;;;;;;;1.94;1.79;;;;;;;7.13;90.62;98693.34;2015491;80;20350;-73
2020/12/15 06:40:45;;;;;;;2.09;1.76;;;;;;;7.15;90.59;98686.44;2015568;80;20382;-74
2020/12/15 06:43:47;;;;;;;1.79;1.69;;;;;;;7.18;90.62;98690.75;2016448;80;20342;-73
2020/12/15 06:46:52;;;;;;;2.20;1.64;;;;;;;7.23;90.78;98696.78;2016340;80;21200;-73
2020/12/15 06:49:54;;;;;;;2.30;1.86;;;;;;;7.26;90.75;98695.03;2016147;80;20332;-73
2020/12/15 06:53:07;;;;;;;2.54;2.04;;;;;;;7.30;90.87;98706.22;2016042;80;20791;-72
2020/12/15 06:56:11;;;;;;;3.25;2.03;;;;;;;7.39;91.21;98705.34;2016482;80;20321;-72
2020/12/15 06:59:17;;;;;;;3.74;2.22;;;;;;;7.49;91.28;98707.88;2016780;80;20350;-77
2020/12/15 07:02:19;;;;;;;2.28;2.06;;;;;;;7.56;91.38;98711.31;2017063;80;20325;-73
2020/12/15 07:05:28;;;;;;;2.42;2.22;;;;;;;7.66;91.48;98714.72;2015863;80;20309;-72
2020/12/15 07:08:30;;;;;;;5.64;2.96;;;;;;;7.72;91.46;98714.69;2016354;80;20309;-73
2020/12/15 07:11:32;;;;;;;5.40;3.05;;;;;;;7.79;91.43;98722.41;2016973;80;20184;-73
2020/12/15 07:14:34;;;;;;;2.56;2.36;;;;;;;7.83;91.30;98721.53;2016272;80;20443;-74
2020/12/15 07:17:35;;;;;;;3.90;2.08;;;;;;;7.89;91.31;98724.06;2016391;80;20320;-73
2020/12/15 07:20:37;;;;;;;4.69;2.50;;;;;;;7.93;90.98;98722.38;2016441;80;20399;-73
2020/12/15 07:23:39;;;;;;;2.71;2.05;;;;;;;7.98;90.92;98723.19;2016413;80;20342;-73
2020/12/15 07:26:41;;;;;;;4.13;2.39;;;;;;;8.03;90.89;98723.16;2017516;80;20358;-74
2020/12/15 07:29:52;;;;;;;5.75;2.22;;;;;;;8.08;90.75;98729.19;2017808;80;20891;-73
2020/12/15 07:32:53;;;;;;;3.31;1.88;;;;;;;8.12;90.74;98731.75;2018046;80;20333;-74
2020/12/15 07:35:55;;;;;;;4.79;2.46;;;;;;;8.13;90.55;98730.88;2017801;80;20329;-73
2020/12/15 07:38:57;;;;;;;3.50;2.04;;;;;;;8.15;90.51;98734.31;2017838;80;20335;-73
2020/12/15 07:42:03;;;;;;;3.49;2.46;;;;;;;8.16;90.37;98742.94;2017982;80;20802;-72
2020/12/15 07:45:23;;;;;;;2.44;1.83;;;;;;;8.16;90.27;98741.19;2017917;80;20461;-73
2020/12/15 07:48:27;;;;;;;3.99;1.70;;;;;;;8.14;90.05;98747.25;2017274;80;20341;-73
2020/12/15 07:51:32;;;;;;;4.91;2.04;;;;;;;8.17;nan;98744.66;2017571;80;20342;-73
2020/12/15 07:54:34;;;;;;;3.08;1.56;;;;;;;8.18;90.05;98744.63;2022739;80;21055;-73
2020/12/15 07:57:38;;;;;;;2.79;1.52;;;;;;;8.23;90.13;98748.91;2017749;80;20350;-73
2020/12/15 08:00:40;;;;;;;3.22;1.63;;;;;;;8.24;90.28;98737.69;2018062;80;20339;-74
2020/12/15 08:03:41;;;;;;;5.01;1.70;;;;;;;8.27;90.27;98742.88;2018132;80;20321;-73
2020/12/15 08:06:46;;;;;;;3.64;1.73;;;;;;;8.28;90.17;98748.03;2017974;80;20354;-71
2020/12/15 08:09:48;;;;;;;3.61;1.88;;;;;;;8.28;90.33;98752.34;2018360;80;20309;-74
2020/12/15 08:12:50;;;;;;;2.75;1.80;;;;;;;8.29;90.22;98754.94;2018171;80;20907;-79
2020/12/15 08:15:52;;;;;;;3.08;1.50;;;;;;;8.26;90.23;98757.53;2017203;80;20332;-74
2020/12/15 08:19:04;;;;;;;4.51;1.56;;;;;;;8.29;90.24;98748.91;2017376;80;20466;-74
2020/12/15 08:22:06;;;;;;;2.40;1.58;;;;;;;8.31;90.28;98754.91;2020525;80;20347;-81
2020/12/15 08:25:10;;;;;;;2.72;1.48;;;;;;;8.33;90.36;98763.53;2019339;80;20706;-80
2020/12/15 08:28:24;;;;;;;2.39;1.64;;;;;;;8.33;90.26;98766.97;2018661;80;20928;-76
2020/12/15 08:31:26;;;;;;;2.29;1.61;;;;;;;8.36;90.43;98779.91;2017571;80;20332;-75
2020/12/15 08:34:28;;;;;;;4.18;1.33;;;;;;;8.35;90.35;98775.63;2018088;80;20325;-74
2020/12/15 08:37:36;;;;;;;5.51;1.90;;;;;;;8.41;90.41;98782.47;2017516;80;20309;-74
2020/12/15 08:40:38;;;;;;;4.26;1.35;;;;;;;8.46;90.57;98779.00;2017182;80;20333;-74
2020/12/15 08:43:40;;;;;;;3.15;1.63;;;;;;;8.53;90.56;98786.72;2017044;80;20350;-77
2020/12/15 08:46:42;;;;;;;2.24;1.70;;;;;;;8.59;90.66;98784.94;2017510;80;20320;-77
2020/12/15 08:49:45;;;;;;;3.10;1.46;;;;;;;8.64;90.62;98795.28;2017362;80;20455;-76
2020/12/15 08:52:47;;;;;;;4.55;1.50;;;;;;;8.69;90.58;98796.13;2016587;80;20323;-76
2020/12/15 08:55:49;;;;;;;2.19;1.39;;;;;;;8.74;90.62;98794.34;2017191;80;20859;-76
2020/12/15 08:58:50;;;;;;;3.45;1.73;;;;;;;8.77;90.47;98792.59;2017782;80;20321;-76
2020/12/15 09:01:59;;;;;;;3.01;1.86;;;;;;;8.83;90.43;98796.88;2020042;80;20333;-77
2020/12/15 09:05:09;;;;;;;2.32;1.38;;;;;;;8.84;90.38;98796.00;2017962;80;20321;-76
2020/12/15 09:08:10;;;;;;;3.80;1.70;;;;;;;8.87;90.33;98801.16;2017477;80;20180;-75
2020/12/15 09:11:14;;;;;;;5.49;1.60;;;;;;;8.88;90.20;98805.47;2017528;80;20532;-78
2020/12/15 09:14:18;;;;;;;2.11;1.49;;;;;;;8.85;90.13;98807.22;2017564;80;20329;-74
2020/12/15 09:17:23;;;;;;;4.01;1.38;;;;;;;8.85;90.20;98809.81;2017754;80;20341;-77
2020/12/15 09:20:27;;;;;;;4.13;1.44;;;;;;;8.84;90.22;98811.53;2017328;80;20325;-75
2020/12/15 09:23:29;;;;;;;2.85;1.86;;;;;;;8.84;90.16;98815.88;2016636;80;20837;-77
2020/12/15 09:26:31;;;;;;;2.36;1.59;;;;;;;8.82;90.04;98817.63;2017418;80;20333;-77
2020/12/15 09:29:32;;;;;;;2.01;1.50;;;;;;;8.81;90.19;98821.06;2017237;80;20324;-77
2020/12/15 09:32:34;;;;;;;2.84;1.46;;;;;;;8.81;90.13;98824.53;2017750;80;20402;-77
2020/12/15 09:35:37;;;;;;;3.96;1.64;;;;;;;8.82;90.25;98830.56;2017164;80;20370;-77
2020/12/15 09:38:39;;;;;;;1.98;1.50;;;;;;;8.85;90.23;98825.34;2017703;80;20321;-78
2020/12/15 09:41:40;;;;;;;4.54;2.05;;;;;;;8.91;90.30;98828.75;2017730;80;20334;-78
2020/12/15 09:44:42;;;;;;;3.45;1.86;;;;;;;8.96;90.24;98824.38;2017115;80;20901;-78
2020/12/15 09:47:43;;;;;;;2.83;1.31;;;;;;;9.02;90.15;98832.13;2017470;80;20356;-77
2020/12/15 09:50:45;;;;;;;4.11;1.80;;;;;;;9.06;90.13;98820.88;2017033;80;20446;-77
2020/12/15 09:53:49;;;;;;;5.53;1.95;;;;;;;9.14;90.24;98830.31;2017180;80;20301;-77
2020/12/15 09:56:50;;;;;;;6.44;2.06;;;;;;;9.18;90.22;98826.84;2016603;80;20309;-77
2020/12/15 09:59:52;;;;;;;2.86;1.44;;;;;;;9.21;90.19;98832.00;2015997;80;20408;-77
2020/12/15 10:02:53;;;;;;;4.64;1.81;;;;;;;9.23;90.09;98836.28;2017922;80;20349;-78
2020/12/15 10:05:58;;;;;;;3.00;1.71;;;;;;;9.27;90.00;98834.53;2018544;80;20334;-76
2020/12/15 10:09:15;;;;;;;4.47;1.59;;;;;;;9.26;89.92;98840.56;2018289;80;20211;-78
2020/12/15 10:12:17;;;;;;;2.53;1.66;;;;;;;9.26;89.89;98838.84;2016970;80;20354;-78
2020/12/15 10:15:19;;;;;;;3.40;1.66;;;;;;;9.30;90.02;98830.16;2014213;80;20313;-76
2020/12/15 10:18:20;;;;;;;7.57;1.71;;;;;;;9.32;89.94;98837.91;2017253;80;20425;-74
2020/12/15 10:21:22;;;;;;;4.15;1.75;;;;;;;9.32;90.07;98838.78;2014312;80;20321;-73
2020/12/15 10:24:23;;;;;;;3.70;1.41;;;;;;;9.37;90.12;98833.59;2016919;80;20341;-73
2020/12/15 10:27:25;;;;;;;1.50;1.11;;;;;;;9.45;90.27;98830.91;2014692;80;20339;-74
2020/12/15 10:30:27;;;;;;;3.22;2.08;;;;;;;9.47;90.03;98826.56;2016470;80;20783;-73
2020/12/15 10:33:29;;;;;;;1.81;1.17;;;;;;;9.53;90.05;98834.31;2015160;80;20431;-73
2020/12/15 10:36:37;;;;;;;2.51;1.19;;;;;;;9.58;89.96;98835.97;2015625;80;20448;-73
2020/12/15 10:39:39;;;;;;;5.30;1.30;;;;;;;9.62;89.89;98840.25;2015483;80;20439;-74
2020/12/15 10:42:41;;;;;;;3.42;1.24;;;;;;;9.64;89.84;98841.09;2015583;80;20359;-73
2020/12/15 10:45:42;;;;;;;4.13;1.71;;;;;;;9.69;89.79;98838.44;2016091;80;20204;-73
2020/12/15 10:48:44;;;;;;;2.67;0.99;;;;;;;9.72;89.76;98843.63;2015565;80;20378;-73
2020/12/15 10:51:51;;;;;;;2.22;1.19;;;;;;;9.77;89.72;98841.84;2015030;80;20215;-73
2020/12/15 10:54:53;;;;;;;3.34;1.23;;;;;;;9.80;89.68;98839.22;2013876;80;20201;-73
2020/12/15 10:57:54;;;;;;;2.88;0.94;;;;;;;9.81;89.69;98843.53;2014329;80;20397;-73
2020/12/15 11:00:56;;;;;;;2.42;1.09;;;;;;;9.83;89.76;98853.88;2014925;80;20317;-73
2020/12/15 11:03:58;;;;;;;4.01;1.36;;;;;;;9.85;89.72;98847.78;2015600;80;20325;-75
2020/12/15 11:06:59;;;;;;;2.26;1.08;;;;;;;9.89;89.68;98849.50;2015740;80;20317;-75
2020/12/15 11:10:01;;;;;;;3.13;1.20;;;;;;;9.91;89.80;98844.31;2013689;80;20172;-75
2020/12/15 11:13:03;;;;;;;3.24;1.02;;;;;;;9.91;89.91;98855.53;2013967;80;20365;-75
2020/12/15 11:16:05;;;;;;;3.04;1.49;;;;;;;9.97;89.99;98852.00;2014814;80;20313;-76
2020/12/15 11:19:06;;;;;;;2.05;1.20;;;;;;;9.99;90.02;98848.50;2015583;80;20341;-76
2020/12/15 11:22:08;;;;;;;2.38;1.24;;;;;;;10.05;89.94;98850.16;2014995;80;20680;-77
2020/12/15 11:25:10;;;;;;;2.24;0.94;;;;;;;10.08;89.78;98852.75;2014905;80;20959;-76
2020/12/15 11:28:12;;;;;;;2.84;0.88;;;;;;;10.08;89.84;98855.34;2014407;80;20185;-76
2020/12/15 11:31:13;;;;;;;3.50;0.98;;;;;;;10.11;89.85;98863.09;2015864;80;20313;-76
2020/12/15 11:34:15;;;;;;;1.02;0.81;;;;;;;10.15;89.86;98859.59;2015473;80;20188;-76
2020/12/15 11:37:16;;;;;;;4.43;1.20;;;;;;;10.18;89.62;98861.28;2014418;80;20350;-76
2020/12/15 11:40:18;;;;;;;3.81;0.86;;;;;;;10.21;89.62;98867.31;2015390;80;20313;-76
2020/12/15 11:43:20;;;;;;;5.78;2.01;;;;;;;10.22;89.55;98869.03;2015680;80;20172;-74
2020/12/15 11:46:22;;;;;;;2.03;1.14;;;;;;;10.23;89.63;98872.50;2014870;80;20321;-73
2020/12/15 11:49:23;;;;;;;2.84;1.51;;;;;;;10.23;89.71;98870.78;2015192;80;20188;-74
2020/12/15 11:52:25;;;;;;;1.70;1.24;;;;;;;10.23;89.71;98875.97;2015380;80;20207;-76
2020/12/15 11:55:27;;;;;;;1.45;1.17;;;;;;;10.24;89.74;98872.50;2015438;80;20175;-76
2020/12/15 11:58:29;;;;;;;2.97;0.76;;;;;;;10.25;89.70;98876.81;2013378;80;20321;-74
2020/12/15 12:01:32;;;;;;;1.88;1.10;;;;;;;10.20;89.66;98875.94;2013265;80;20721;-74
2020/12/15 12:04:33;;;;;;;3.22;1.06;;;;;;;10.23;89.84;98878.56;2014281;80;20389;-74
2020/12/15 12:07:36;;;;;;;2.13;1.24;;;;;;;10.23;89.85;98877.69;2014546;80;20991;-74
2020/12/15 12:10:37;;;;;;;3.05;1.15;;;;;;;10.24;89.92;98882.03;2016956;80;20368;-77
2020/12/15 12:13:39;;;;;;;2.47;0.93;;;;;;;10.25;89.98;98878.56;2016572;80;20183;-76
2020/12/15 12:16:40;;;;;;;3.66;1.00;;;;;;;10.26;89.89;98875.06;2016228;80;20320;-76
2020/12/15 12:19:42;;;;;;;4.00;1.58;;;;;;;10.26;89.76;98875.94;2016430;80;20693;-76
2020/12/15 12:22:44;;;;;;;3.22;0.89;;;;;;;10.27;89.74;98881.97;2017091;80;20172;-76
2020/12/15 12:25:45;;;;;;;2.65;0.91;;;;;;;10.27;89.74;98881.97;2016681;80;20337;-76
2020/12/15 12:28:47;;;;;;;2.99;0.99;;;;;;;10.28;89.69;98888.88;2017023;80;20217;-76
2020/12/15 12:31:50;;;;;;;1.69;0.76;;;;;;;10.29;89.64;98886.28;2017110;80;20205;-74
2020/12/15 12:34:51;;;;;;;1.91;1.05;;;;;;;10.31;89.53;98865.50;2015499;80;20954;-74
2020/12/15 12:37:53;;;;;;;1.29;0.80;;;;;;;10.31;89.54;98862.91;2016799;80;20351;-74
2020/12/15 12:40:55;;;;;;;1.67;0.90;;;;;;;10.34;89.50;98846.44;2016676;80;20257;-74
2020/12/15 12:43:57;;;;;;;1.73;0.95;;;;;;;10.38;89.46;98845.50;2016392;80;20386;-74
2020/12/15 12:46:59;;;;;;;1.96;0.82;;;;;;;10.38;89.32;98861.06;2015223;80;20227;-74
2020/12/15 12:50:00;;;;;;;1.08;0.80;;;;;;;10.37;89.35;98877.53;2015674;80;20209;-74
2020/12/15 12:53:03;;;;;;;2.49;0.74;;;;;;;10.34;89.37;98882.75;2016321;80;20215;-73
2020/12/15 12:56:04;;;;;;;1.04;0.60;;;;;;;10.32;89.36;98884.50;2016573;80;20187;-73
2020/12/15 12:59:06;;;;;;;32.19;23.66;;;;;;;10.27;89.27;98890.63;2017011;80;20227;-74
2020/12/15 13:02:08;;;;;;;8.95;6.46;;;;;;;10.27;89.40;98881.97;2017265;80;20539;-73
2020/12/15 13:05:10;;;;;;;4.09;3.79;;;;;;;10.29;89.39;98888.00;2016907;80;20205;-75
2020/12/15 13:08:12;;;;;;;2.15;1.77;;;;;;;10.29;89.33;98890.59;2016716;80;20187;-74
2020/12/15 13:11:14;;;;;;;2.49;2.29;;;;;;;10.28;89.39;98886.28;2015792;80;20209;-74
2020/12/15 13:14:16;;;;;;;1.59;1.33;;;;;;;10.29;89.45;98885.41;2016766;80;21198;-74
2020/12/15 13:17:17;;;;;;;5.18;1.36;;;;;;;10.31;89.48;98882.78;2015869;80;20195;-73
2020/12/15 13:20:19;;;;;;;1.41;0.99;;;;;;;10.32;89.55;98887.09;2016055;80;20878;-73
2020/12/15 13:23:21;;;;;;;2.19;0.98;;;;;;;10.35;89.41;98894.84;2016699;80;20470;-73
2020/12/15 13:26:23;;;;;;;1.81;0.80;;;;;;;10.38;89.53;98898.28;2016312;80;20972;-73
2020/12/15 13:29:24;;;;;;;3.34;1.23;;;;;;;10.43;89.43;98893.91;2016078;80;20234;-74
2020/12/15 13:32:26;;;;;;;1.71;1.31;;;;;;;10.49;89.44;98903.34;2017115;80;20849;-73
2020/12/15 13:35:28;;;;;;;5.66;1.19;;;;;;;10.52;89.16;98921.47;2017827;80;20502;-72
2020/12/15 13:38:30;;;;;;;1.19;0.95;;;;;;;10.50;89.11;98924.09;2016891;80;20236;-72
2020/12/15 13:41:32;;;;;;;2.46;1.20;;;;;;;10.46;88.80;98927.59;2017172;80;20620;-72
2020/12/15 13:44:34;;;;;;;1.50;1.06;;;;;;;10.41;88.74;98933.69;2017632;80;20273;-72
2020/12/15 13:47:36;;;;;;;3.55;1.63;;;;;;;10.39;88.83;98941.50;2016751;80;20314;-73
2020/12/15 13:50:38;;;;;;;2.44;1.24;;;;;;;10.36;88.76;98945.88;2016623;80;20217;-72
2020/12/15 13:53:40;;;;;;;2.89;1.40;;;;;;;10.35;88.93;98949.34;2016862;80;20503;-76
2020/12/15 13:56:41;;;;;;;1.61;1.19;;;;;;;10.33;88.93;98949.38;2016112;80;20346;-75
2020/12/15 13:59:43;;;;;;;4.80;1.16;;;;;;;10.32;88.86;98958.03;2015921;80;20813;-75
2020/12/15 14:02:45;;;;;;;3.78;1.17;;;;;;;10.31;88.86;98958.06;2016210;80;20281;-75
2020/12/15 14:05:47;;;;;;;3.05;1.10;;;;;;;10.27;88.79;98958.09;2016230;80;20370;-75
2020/12/15 14:08:48;;;;;;;3.03;0.91;;;;;;;10.26;88.82;98956.38;2015387;80;20171;-75
2020/12/15 14:12:04;;;;;;;1.25;0.82;;;;;;;10.25;88.85;98965.03;2016256;80;20219;-74
2020/12/15 14:15:05;;;;;;;1.77;0.90;;;;;;;10.25;88.76;98962.44;2014916;80;20345;-76
2020/12/15 14:18:08;;;;;;;3.40;1.05;;;;;;;10.24;88.70;98957.25;2015704;80;20236;-75
2020/12/15 14:21:09;;;;;;;2.24;0.93;;;;;;;10.23;88.79;98964.19;2016297;80;20195;-75
2020/12/15 14:24:15;;;;;;;1.00;0.90;;;;;;;10.23;88.83;98971.97;2016110;80;20649;-75
2020/12/15 14:27:17;;;;;;;1.92;1.01;;;;;;;10.23;88.80;98979.75;2016161;80;20176;-75